Stonesfield, United Kingdom
Current Conditions -  °F | °C
As of 10:20 PM on Monday 22 Dec 2014 (Local Time) from EGTK Reporting Station
Broken Clouds Broken Clouds  
Wind Chill: 52°   Ceiling: 2100
Heat Index: 52°   Visibility: 6mi
Dew Point: 50°   Wind: 23mph
Humidity: 94%   Direction: 250°WSW
Pressure: 30"   Gusts: NA
Location:  51.85°N, 1.43°W
Report Text: EGTK 222220Z 25020KT 9999 SCT011 SCT016 BKN021 11/10 Q1016
Loading
Personal Weather Stations






























Interactive Weather Map New forecast layout! Learn more

10-Day Weather Forecast

Advertisements
Track Severe Weather on mobile